Hay River Airport
CYHY : now visible

Airfield :











YOU CAN JOIN US ON...

 
LOGIN :

Register | Disclaimer

   EN    FR    IT 

 









Legend :    VFR   Marginal VFR   IFR   Intensive IFR   Very Intensive IFR
Visi :
Ceiling :
>= 8 km
>= 3000ft
5 to 8 km
1000 to 3000 ft
1500m to 5 km
500 to 1000 ft
800 to 1500m
200 to 500 ft
< 800m
< 200 ft
Symbols :   Thunderstorms  Fog  Heavy snow  Heavy precipitations  Wind > 20 kt






- Airport Elevation : 543 ft
- IATA code : YHY


CYHY - Hay River

CURRENT METAR :
  • 020300Z 26007KT 5SM -SN BKN042 OVC230 M25/M29 A2993 RMK SC5CI3 SLP160

EXPIRED METARs :
  • 020222Z 25004KT 5SM -SN FEW035 BKN042 OVC230 M26/M30 A2993 RMK SC2SC5CI1 SLP160
  • 020200Z 24005KT 15SM SCT035 SCT052 BKN230 M27/M31 A2992 RMK SC3SC1CI2 SLP160
  • 020100Z 24005KT 15SM SCT230 M28/M32 A2991 RMK CI3 SLP156
  • 020000Z 26006KT 15SM FEW100 SCT230 M28/M32 A2990 RMK AC1CI3 SLP153

TAF AMD TAF CYHY
Valid from the 02 at 02:00 until the 02 at 12:00 UTC


020233Z 0202/0212 25008KT P6SM SCT020 BKN040
TEMPO 0202/0206 2SM -SN BKN020 OVC040
FM020600 27010G20KT P6SM -SN SCT030 BKN080
TEMPO 0206/0212 2SM -SHSN BR BKN030 OVC080 RMK NXT FCST BY 020600Z
CZEG FIR / North America



MET'MAP, your aeronautical weather chart ! - Copyright ORBIFLY December 2007 - Disclaimer

ORBIFLY MET'MAP TEAM :

Programming & Development : Alexandra Zaïnal
Original concept : Baudouin d'Aumeries
Technical & hardware support : Manuel Goepfert
Assistance : Marc-Olivier Méhu




SOURCES & CREDITS :

   NOAA       Earth
Advisory